Time;durP1;ratioP1;P1;durP2;ratioP2;P2;SDS_P1;SDS_P2;PMS_P1;PMS_P2;Temp;Humidity;BMP_temperature;BMP_pressure;BME280_temperature;BME280_humidity;BME280_pressure;Samples;Min_cycle;Max_cycle;Signal;HPM_P1;HPM_P2
2023/10/14 00:00:47;;;;;;;1.48;0.45;;;14.20;99.90;;;;;;5015641;28;20042;-77
2023/10/14 00:03:27;;;;;;;0.00;0.00;;;13.00;99.90;;;;;;5015775;28;20042;-78
2023/10/14 00:05:54;;;;;;;0.20;0.20;;;12.90;99.90;;;;;;5015106;28;20038;-77
2023/10/14 00:08:20;;;;;;;0.00;0.00;;;12.90;99.90;;;;;;5015393;28;20479;-77
2023/10/14 00:10:46;;;;;;;1.10;0.57;;;12.80;99.90;;;;;;5015153;28;20052;-77
2023/10/14 00:13:16;;;;;;;0.00;0.00;;;12.80;99.90;;;;;;5014912;28;20117;-78
2023/10/14 00:15:42;;;;;;;0.00;0.00;;;12.80;99.90;;;;;;5014944;28;20407;-77
2023/10/14 00:18:08;;;;;;;1.20;0.30;;;12.70;99.90;;;;;;5015266;28;20034;-78
2023/10/14 00:20:35;;;;;;;0.00;0.00;;;12.70;99.90;;;;;;5015038;28;20048;-78
2023/10/14 00:23:02;;;;;;;0.00;0.00;;;12.70;99.90;;;;;;5013513;28;20045;-76
2023/10/14 00:25:28;;;;;;;1.08;0.10;;;12.60;99.90;;;;;;5014891;28;20045;-77
2023/10/14 00:27:54;;;;;;;0.00;0.00;;;12.50;99.90;;;;;;5014631;28;20030;-78
2023/10/14 00:30:20;;;;;;;11.20;1.75;;;12.70;99.90;;;;;;5014188;28;20046;-77
2023/10/14 00:32:46;;;;;;;0.20;0.20;;;12.20;99.90;;;;;;5014761;28;20050;-77
2023/10/14 00:35:12;;;;;;;0.05;0.05;;;11.90;99.90;;;;;;5014656;28;20069;-77
2023/10/14 00:37:37;;;;;;;0.00;0.00;;;11.80;99.90;;;;;;5014638;28;20072;-76
2023/10/14 00:40:22;;;;;;;0.10;0.10;;;11.70;99.90;;;;;;5014437;28;20058;-76
2023/10/14 00:42:50;;;;;;;0.00;0.00;;;11.60;99.90;;;;;;5013231;28;20042;-76
2023/10/14 00:45:20;;;;;;;0.00;0.00;;;11.60;99.90;;;;;;5014684;28;20056;-76
2023/10/14 00:47:49;;;;;;;0.47;0.47;;;11.50;99.90;;;;;;5014235;28;20042;-76
2023/10/14 00:50:27;;;;;;;1.20;0.63;;;11.50;99.90;;;;;;5014385;28;20044;-75
2023/10/14 00:52:57;;;;;;;1.95;1.20;;;11.50;99.90;;;;;;5013748;28;20432;-76
2023/10/14 00:58:12;;;;;;;0.95;0.17;;;11.30;99.90;;;;;;5014157;28;20042;-76
2023/10/14 01:00:57;;;;;;;0.38;0.38;;;11.20;99.90;;;;;;5006791;28;20121;-75
2023/10/14 01:03:34;;;;;;;0.20;0.20;;;11.20;99.90;;;;;;5011422;28;20491;-76
2023/10/14 01:06:21;;;;;;;4.05;1.50;;;11.20;99.90;;;;;;5012292;28;20061;-76
2023/10/14 01:08:53;;;;;;;0.30;0.08;;;11.20;99.90;;;;;;5006064;28;20088;-76
2023/10/14 01:11:20;;;;;;;0.35;0.35;;;11.10;99.90;;;;;;5013722;28;20038;-76
2023/10/14 01:13:46;;;;;;;0.00;0.00;;;11.00;99.90;;;;;;5013885;28;20459;-76
2023/10/14 01:16:12;;;;;;;0.47;0.20;;;11.10;99.90;;;;;;5012053;28;20073;-76
2023/10/14 01:18:44;;;;;;;0.17;0.17;;;11.00;99.90;;;;;;5013872;28;20034;-76
2023/10/14 01:21:10;;;;;;;1.23;0.75;;;10.80;99.90;;;;;;5013638;28;20046;-77
2023/10/14 01:23:36;;;;;;;0.20;0.20;;;10.70;99.90;;;;;;5013473;28;20168;-75
2023/10/14 01:26:04;;;;;;;0.00;0.00;;;10.60;99.90;;;;;;5012281;28;20089;-75
2023/10/14 01:28:30;;;;;;;0.00;0.00;;;10.60;99.90;;;;;;5014085;28;20403;-75
2023/10/14 01:31:33;;;;;;;0.00;0.00;;;10.60;99.90;;;;;;5028858;28;20054;-76
2023/10/14 01:34:01;;;;;;;0.17;0.17;;;10.50;99.90;;;;;;5013544;28;20128;-75
2023/10/14 01:36:32;;;;;;;0.10;0.10;;;10.40;99.90;;;;;;5013602;28;20072;-76
2023/10/14 01:38:59;;;;;;;0.00;0.00;;;10.30;99.90;;;;;;5013984;28;20050;-75
2023/10/14 01:41:29;;;;;;;0.10;0.08;;;10.20;99.90;;;;;;5014023;28;20038;-76
2023/10/14 01:43:59;;;;;;;0.00;0.00;;;10.10;99.90;;;;;;5013765;28;20099;-77
2023/10/14 01:46:27;;;;;;;0.20;0.20;;;10.10;99.90;;;;;;5013030;28;20042;-76
2023/10/14 01:48:55;;;;;;;5.78;1.77;;;10.00;99.90;;;;;;5017490;28;20441;-76
2023/10/14 01:51:21;;;;;;;0.00;0.00;;;10.00;99.90;;;;;;5017193;28;20124;-75
2023/10/14 01:53:46;;;;;;;0.00;0.00;;;10.00;99.90;;;;;;5017419;28;20096;-76
2023/10/14 01:56:12;;;;;;;3.20;1.10;;;10.00;99.90;;;;;;5016509;28;20073;-76
2023/10/14 01:58:40;;;;;;;0.00;0.00;;;9.90;99.90;;;;;;5017866;28;20041;-76
2023/10/14 02:03:45;;;;;;;0.05;0.05;;;9.80;99.90;;;;;;5017107;28;20081;-77
2023/10/14 02:06:17;;;;;;;0.40;0.40;;;9.70;99.90;;;;;;5017172;28;20057;-77
2023/10/14 02:08:44;;;;;;;1.35;0.57;;;9.70;99.90;;;;;;5017102;28;20034;-77
2023/10/14 02:11:10;;;;;;;17.35;0.57;;;9.60;99.90;;;;;;5017351;28;20081;-76
2023/10/14 02:13:36;;;;;;;0.70;0.70;;;9.50;99.90;;;;;;5016885;28;20080;-77
2023/10/14 02:16:08;;;;;;;0.03;0.03;;;9.40;99.90;;;;;;5017561;28;20050;-77
2023/10/14 02:18:38;;;;;;;1.27;0.85;;;9.40;99.90;;;;;;5017656;28;20042;-77
2023/10/14 02:21:11;;;;;;;0.00;0.00;;;9.40;99.90;;;;;;5015618;28;20053;-77
2023/10/14 02:23:43;;;;;;;0.10;0.08;;;9.50;99.90;;;;;;5017135;28;20056;-77
2023/10/14 02:26:16;;;;;;;2.53;1.30;;;9.30;99.90;;;;;;5017207;28;20495;-77
2023/10/14 02:28:48;;;;;;;0.00;0.00;;;9.30;99.90;;;;;;5016028;28;20054;-77
2023/10/14 02:31:17;;;;;;;1.08;0.13;;;9.20;99.90;;;;;;5016886;28;20476;-76
2023/10/14 02:33:47;;;;;;;0.00;0.00;;;9.10;99.90;;;;;;5017459;28;20046;-78
2023/10/14 02:36:17;;;;;;;7.53;1.88;;;9.10;99.90;;;;;;5009012;28;20492;-77
2023/10/14 02:38:53;;;;;;;0.30;0.28;;;9.00;99.90;;;;;;5015349;28;20455;-77
2023/10/14 02:41:27;;;;;;;0.00;0.00;;;9.00;99.90;;;;;;5015129;28;20046;-77
2023/10/14 02:44:01;;;;;;;0.90;0.65;;;9.00;99.90;;;;;;5016730;28;20041;-77
2023/10/14 02:46:30;;;;;;;0.00;0.00;;;9.00;99.90;;;;;;5015993;28;20104;-78
2023/10/14 02:49:02;;;;;;;0.13;0.05;;;9.00;99.90;;;;;;5015955;28;20435;-77
2023/10/14 02:54:05;;;;;;;0.22;0.22;;;8.90;99.90;;;;;;5016902;28;20038;-77
2023/10/14 02:56:44;;;;;;;0.00;0.00;;;8.90;99.90;;;;;;5016205;28;20068;-76
2023/10/14 02:59:15;;;;;;;0.00;0.00;;;8.90;99.90;;;;;;5015729;28;20041;-76
2023/10/14 03:01:50;;;;;;;0.00;0.00;;;8.90;99.90;;;;;;5016285;28;20061;-76
2023/10/14 03:04:18;;;;;;;0.03;0.03;;;8.90;99.90;;;;;;5015120;28;20046;-75
2023/10/14 03:06:46;;;;;;;0.40;0.25;;;8.90;99.90;;;;;;5016409;28;20501;-77
2023/10/14 03:09:18;;;;;;;0.00;0.00;;;9.00;99.90;;;;;;5016339;28;20038;-76
2023/10/14 03:11:45;;;;;;;2.85;0.30;;;8.90;99.90;;;;;;5014973;28;20085;-77
2023/10/14 03:14:14;;;;;;;0.00;0.00;;;8.80;99.90;;;;;;5017070;28;20057;-76
2023/10/14 03:16:40;;;;;;;0.00;0.00;;;8.80;99.90;;;;;;5015510;28;20037;-76
2023/10/14 03:19:05;;;;;;;0.20;0.20;;;8.80;99.90;;;;;;5016479;28;20038;-75
2023/10/14 03:21:33;;;;;;;0.00;0.00;;;8.80;99.90;;;;;;5016066;28;20488;-76
2023/10/14 03:23:58;;;;;;;0.00;0.00;;;8.80;99.90;;;;;;5008255;28;20045;-76
2023/10/14 03:26:32;;;;;;;0.93;0.52;;;8.80;99.90;;;;;;5016149;28;20372;-76
2023/10/14 03:29:05;;;;;;;0.00;0.00;;;8.70;99.90;;;;;;5014943;28;20049;-76
2023/10/14 03:31:35;;;;;;;0.00;0.00;;;8.70;99.90;;;;;;5015729;28;20069;-77
2023/10/14 03:34:08;;;;;;;0.20;0.13;;;8.70;99.90;;;;;;5016063;28;20052;-77
2023/10/14 03:36:34;;;;;;;0.00;0.00;;;8.70;99.90;;;;;;5016222;28;20042;-76
2023/10/14 03:39:16;;;;;;;0.00;0.00;;;9.20;99.90;;;;;;5015595;28;20104;-75
2023/10/14 03:41:42;;;;;;;0.20;0.20;;;8.70;99.90;;;;;;5015200;28;20431;-76
2023/10/14 03:44:14;;;;;;;0.25;0.10;;;8.70;99.90;;;;;;5015408;28;20042;-77
2023/10/14 03:46:43;;;;;;;0.00;0.00;;;8.70;99.90;;;;;;5015164;28;20046;-77
2023/10/14 03:49:20;;;;;;;0.00;0.00;;;8.60;99.90;;;;;;5015128;28;20052;-76
2023/10/14 03:51:47;;;;;;;0.25;0.22;;;8.60;99.90;;;;;;5014095;28;20084;-77
2023/10/14 03:54:19;;;;;;;0.20;0.20;;;8.50;99.90;;;;;;5014482;28;20049;-76
2023/10/14 03:56:45;;;;;;;1.52;0.85;;;8.50;99.90;;;;;;5015222;28;20061;-76
2023/10/14 03:59:20;;;;;;;0.43;0.38;;;8.50;99.90;;;;;;5014945;28;20050;-76
2023/10/14 04:01:46;;;;;;;0.00;0.00;;;8.50;99.90;;;;;;5013769;28;20048;-76
2023/10/14 04:04:17;;;;;;;0.28;0.28;;;8.40;99.90;;;;;;5013720;28;20042;-76
2023/10/14 04:09:38;;;;;;;0.00;0.00;;;8.50;99.90;;;;;;5014981;28;20058;-76
2023/10/14 04:14:54;;;;;;;0.75;0.40;;;8.40;99.90;;;;;;4998539;28;20056;-77
2023/10/14 04:17:22;;;;;;;6.50;0.55;;;8.40;99.90;;;;;;5014800;28;20046;-76
2023/10/14 04:19:53;;;;;;;0.00;0.00;;;8.50;99.90;;;;;;5013700;28;20145;-77
2023/10/14 04:28:17;;;;;;;0.00;0.00;;;8.50;99.90;;;;;;5014907;28;20428;-76
2023/10/14 04:30:32;;;;;;;0.00;0.00;;;8.40;99.90;;;;;;5013296;28;20139;-77
2023/10/14 04:35:31;;;;;;;0.60;0.60;;;8.20;99.90;;;;;;5014793;28;20088;-76
2023/10/14 04:38:02;;;;;;;0.00;0.00;;;8.20;99.90;;;;;;5013399;28;20061;-76
2023/10/14 04:45:51;;;;;;;0.00;0.00;;;8.00;99.90;;;;;;5012864;28;20050;-76
2023/10/14 04:48:27;;;;;;;0.00;0.00;;;7.90;99.90;;;;;;5012420;28;20038;-76
2023/10/14 04:50:58;;;;;;;1.45;0.52;;;7.90;99.90;;;;;;5012618;28;20042;-76
2023/10/14 04:53:27;;;;;;;0.63;0.63;;;7.90;99.90;;;;;;5012202;28;20042;-76
2023/10/14 04:55:53;;;;;;;0.10;0.10;;;7.90;99.90;;;;;;5013458;28;20041;-76
2023/10/14 04:58:25;;;;;;;0.00;0.00;;;7.90;99.90;;;;;;5013180;28;20042;-76
2023/10/14 05:00:52;;;;;;;0.28;0.28;;;7.80;99.90;;;;;;5012126;28;20116;-76
2023/10/14 05:03:21;;;;;;;0.28;0.28;;;7.80;99.90;;;;;;5013522;28;20404;-76
2023/10/14 05:06:03;;;;;;;0.00;0.00;;;7.70;99.90;;;;;;5011199;28;20125;-76
2023/10/14 05:08:44;;;;;;;0.55;0.55;;;7.70;99.90;;;;;;5011436;28;20153;-76
2023/10/14 05:11:14;;;;;;;1.75;0.98;;;7.70;99.90;;;;;;5012097;28;20053;-76
2023/10/14 05:13:42;;;;;;;0.00;0.00;;;7.70;99.90;;;;;;5012615;28;20046;-76
2023/10/14 05:16:15;;;;;;;1.33;1.00;;;7.70;99.90;;;;;;5012486;28;20064;-76
2023/10/14 05:18:48;;;;;;;0.10;0.10;;;7.70;99.90;;;;;;5012592;28;20042;-76
2023/10/14 05:21:35;;;;;;;0.00;0.00;;;7.70;99.90;;;;;;5012560;28;20042;-76
2023/10/14 05:23:59;;;;;;;0.00;0.00;;;7.70;99.90;;;;;;5016232;28;20053;-76
2023/10/14 05:26:27;;;;;;;0.15;0.10;;;7.70;99.90;;;;;;5016335;28;20403;-76
2023/10/14 05:28:53;;;;;;;0.00;0.00;;;7.70;99.90;;;;;;5016316;28;20049;-76
2023/10/14 05:31:19;;;;;;;0.10;0.10;;;7.60;99.90;;;;;;5015746;28;20156;-76
2023/10/14 05:33:44;;;;;;;1.35;1.08;;;7.60;99.90;;;;;;5016132;28;20077;-76
2023/10/14 05:36:10;;;;;;;0.00;0.00;;;7.70;99.90;;;;;;5016100;28;20034;-76
2023/10/14 05:38:35;;;;;;;0.65;0.65;;;7.70;99.90;;;;;;5015923;28;20500;-76
2023/10/14 05:41:06;;;;;;;0.55;0.47;;;7.60;99.90;;;;;;5015800;28;20037;-76
2023/10/14 05:43:32;;;;;;;0.00;0.00;;;7.70;99.90;;;;;;5015955;28;20037;-76
2023/10/14 05:45:57;;;;;;;0.20;0.17;;;7.60;99.90;;;;;;5015748;28;20460;-76
2023/10/14 05:48:30;;;;;;;5.28;2.08;;;8.30;99.90;;;;;;5015771;28;20038;-76
2023/10/14 05:50:56;;;;;;;0.00;0.00;;;7.60;99.90;;;;;;5015518;28;20050;-76
2023/10/14 05:53:31;;;;;;;0.20;0.20;;;7.60;99.90;;;;;;5015684;28;20484;-77
2023/10/14 05:56:09;;;;;;;3.40;1.27;;;7.60;99.90;;;;;;5015337;28;20439;-76
2023/10/14 05:58:38;;;;;;;0.00;0.00;;;7.50;99.90;;;;;;5015839;28;20050;-76
2023/10/14 06:01:11;;;;;;;0.00;0.00;;;7.50;99.90;;;;;;5015143;28;20042;-76
2023/10/14 06:03:43;;;;;;;0.35;0.30;;;7.50;99.90;;;;;;5015419;28;20506;-76
2023/10/14 06:06:10;;;;;;;1.10;0.75;;;7.50;99.90;;;;;;5015528;28;20049;-76
2023/10/14 06:08:39;;;;;;;0.00;0.00;;;7.50;99.90;;;;;;5015680;28;20085;-76
2023/10/14 06:11:05;;;;;;;0.10;0.10;;;7.50;99.90;;;;;;5015144;28;20049;-76
2023/10/14 06:13:35;;;;;;;2.95;1.70;;;7.50;99.90;;;;;;5015147;28;20038;-76
2023/10/14 06:16:07;;;;;;;0.00;0.00;;;7.50;99.90;;;;;;5015305;28;20038;-76
2023/10/14 06:18:47;;;;;;;0.22;0.22;;;7.60;99.90;;;;;;5007718;28;20040;-76
2023/10/14 06:21:15;;;;;;;0.63;0.40;;;7.50;99.90;;;;;;5015098;28;20066;-76
2023/10/14 06:23:46;;;;;;;0.00;0.00;;;7.60;99.90;;;;;;5014758;28;20057;-76
2023/10/14 06:26:16;;;;;;;0.65;0.65;;;7.60;99.90;;;;;;5014866;28;20042;-76
2023/10/14 06:28:42;;;;;;;0.63;0.57;;;7.70;99.90;;;;;;5015103;28;20042;-76
2023/10/14 06:31:08;;;;;;;0.00;0.00;;;7.70;99.90;;;;;;5014854;28;20079;-76
2023/10/14 06:33:33;;;;;;;0.00;0.00;;;7.70;99.90;;;;;;5014605;28;20046;-76
2023/10/14 06:36:03;;;;;;;5.25;1.10;;;7.80;99.90;;;;;;5014751;28;20128;-76
2023/10/14 06:38:29;;;;;;;0.00;0.00;;;7.90;99.90;;;;;;5014719;28;20038;-76
2023/10/14 06:41:01;;;;;;;0.00;0.00;;;7.90;99.90;;;;;;5014102;28;20052;-76
2023/10/14 06:43:27;;;;;;;0.00;0.00;;;7.90;99.90;;;;;;5014480;28;20420;-76
2023/10/14 06:45:54;;;;;;;0.00;0.00;;;8.00;99.90;;;;;;5014754;28;20042;-76
2023/10/14 06:48:20;;;;;;;0.05;0.05;;;8.00;99.90;;;;;;5014541;28;20060;-76
2023/10/14 06:50:47;;;;;;;0.00;0.00;;;8.10;99.90;;;;;;5014713;28;20430;-76
2023/10/14 06:53:18;;;;;;;12.98;0.57;;;8.10;99.90;;;;;;5014835;28;20073;-76
2023/10/14 06:55:44;;;;;;;3.63;1.65;;;8.20;99.90;;;;;;5014643;28;20050;-76
2023/10/14 06:58:11;;;;;;;1.88;0.28;;;8.20;99.90;;;;;;5014839;28;20045;-76
2023/10/14 07:00:38;;;;;;;1.63;1.25;;;8.20;99.90;;;;;;5014438;28;20472;-76
2023/10/14 07:03:07;;;;;;;5.47;2.70;;;8.30;99.90;;;;;;5014649;28;20088;-76
2023/10/14 07:05:43;;;;;;;0.00;0.00;;;8.30;99.90;;;;;;5014667;28;20056;-76
2023/10/14 07:08:09;;;;;;;0.00;0.00;;;8.40;99.90;;;;;;5013142;28;20093;-76
2023/10/14 07:10:35;;;;;;;1.35;0.98;;;8.50;99.90;;;;;;5013775;28;20431;-76
2023/10/14 07:13:01;;;;;;;0.30;0.30;;;8.60;99.90;;;;;;5013763;28;20058;-76
2023/10/14 07:15:33;;;;;;;1.00;0.80;;;8.70;99.90;;;;;;5013560;28;20034;-76
2023/10/14 07:17:59;;;;;;;0.30;0.30;;;8.70;99.90;;;;;;5013976;28;20055;-77
2023/10/14 07:20:34;;;;;;;0.68;0.38;;;8.80;99.90;;;;;;5012942;28;20054;-76
2023/10/14 07:23:01;;;;;;;18.02;0.75;;;8.80;99.90;;;;;;5013628;28;20399;-76
2023/10/14 07:25:33;;;;;;;0.00;0.00;;;8.90;99.90;;;;;;5013629;28;20484;-76
2023/10/14 07:28:00;;;;;;;1.67;0.45;;;8.90;99.90;;;;;;5013076;28;20049;-76
2023/10/14 07:30:27;;;;;;;0.32;0.30;;;9.00;99.90;;;;;;5012557;28;20109;-76
2023/10/14 07:32:54;;;;;;;0.00;0.00;;;9.10;99.90;;;;;;5014102;28;20380;-76
2023/10/14 07:35:20;;;;;;;1.90;0.60;;;9.10;99.90;;;;;;5014357;28;20061;-76
2023/10/14 07:37:53;;;;;;;0.00;0.00;;;9.20;99.90;;;;;;5013982;28;20491;-76
2023/10/14 07:40:23;;;;;;;0.43;0.38;;;9.20;99.90;;;;;;5013630;28;20042;-76
2023/10/14 07:42:59;;;;;;;0.00;0.00;;;9.30;99.90;;;;;;5014095;28;20046;-77
2023/10/14 07:45:28;;;;;;;0.13;0.13;;;9.30;99.90;;;;;;5012943;28;20046;-76
2023/10/14 07:47:56;;;;;;;0.00;0.00;;;9.30;99.90;;;;;;5013952;28;20133;-76
2023/10/14 07:50:22;;;;;;;0.38;0.32;;;9.40;99.90;;;;;;5013523;28;20132;-76
2023/10/14 07:52:48;;;;;;;5.57;0.35;;;9.50;99.90;;;;;;5013217;28;20495;-76
2023/10/14 07:55:22;;;;;;;0.00;0.00;;;9.80;99.90;;;;;;5013562;28;20139;-76
2023/10/14 07:57:48;;;;;;;0.00;0.00;;;10.20;99.90;;;;;;5013610;28;20377;-76
2023/10/14 08:00:14;;;;;;;2.80;1.05;;;10.50;99.90;;;;;;5012154;28;20038;-76
2023/10/14 08:02:41;;;;;;;0.00;0.00;;;10.50;99.90;;;;;;5010273;28;20054;-76
2023/10/14 08:05:08;;;;;;;0.35;0.28;;;10.50;99.90;;;;;;5013516;28;20050;-76
2023/10/14 08:07:40;;;;;;;0.25;0.25;;;10.50;99.90;;;;;;5005200;28;20042;-76
2023/10/14 08:10:19;;;;;;;1.20;0.52;;;10.50;99.90;;;;;;5013350;28;20117;-76
2023/10/14 08:12:46;;;;;;;4.03;0.93;;;10.40;99.90;;;;;;5013097;28;20046;-76
2023/10/14 08:15:13;;;;;;;0.15;0.15;;;10.40;99.90;;;;;;5011887;28;20125;-76
2023/10/14 08:17:41;;;;;;;0.32;0.30;;;10.40;99.90;;;;;;5011626;28;20117;-77
2023/10/14 08:20:12;;;;;;;0.00;0.00;;;10.40;99.90;;;;;;5012561;28;20069;-76
2023/10/14 08:22:44;;;;;;;5.57;1.95;;;10.40;99.90;;;;;;5010659;28;20052;-76
2023/10/14 08:25:14;;;;;;;28.17;1.98;;;10.40;99.90;;;;;;5012530;28;20467;-76
2023/10/14 08:27:40;;;;;;;2.67;1.27;;;10.50;99.90;;;;;;5012831;28;20049;-76
2023/10/14 08:30:10;;;;;;;0.20;0.20;;;10.50;99.90;;;;;;5012251;28;20396;-76
2023/10/14 08:32:44;;;;;;;1.15;0.65;;;10.50;99.90;;;;;;5012359;28;20072;-76
2023/10/14 08:35:16;;;;;;;8.68;1.35;;;10.60;99.90;;;;;;5012002;28;20037;-76
2023/10/14 08:37:47;;;;;;;0.15;0.15;;;10.60;99.90;;;;;;5013063;28;20085;-76
2023/10/14 08:40:16;;;;;;;2.60;1.10;;;10.70;99.90;;;;;;5012942;28;20129;-76
2023/10/14 08:42:50;;;;;;;0.03;0.03;;;10.80;99.90;;;;;;5012672;28;20045;-76
2023/10/14 08:45:18;;;;;;;1.75;0.40;;;10.80;99.90;;;;;;5012631;28;20088;-76
2023/10/14 08:47:52;;;;;;;0.00;0.00;;;10.90;99.90;;;;;;5012849;28;20050;-76
2023/10/14 08:50:29;;;;;;;0.30;0.30;;;10.90;99.90;;;;;;5012938;28;20511;-77
2023/10/14 08:52:56;;;;;;;0.00;0.00;;;11.10;99.90;;;;;;5012814;28;20411;-76
2023/10/14 08:55:22;;;;;;;0.00;0.00;;;11.20;33.10;;;;;;5013367;28;20037;-76
2023/10/14 08:57:49;;;;;;;0.00;0.00;;;11.30;99.90;;;;;;5015446;28;20058;-76
2023/10/14 09:00:20;;;;;;;3.00;1.85;;;11.30;50.20;;;;;;5016667;28;20514;-75
2023/10/14 09:02:50;;;;;;;0.35;0.32;;;11.40;1.00;;;;;;5016332;28;20423;-77
2023/10/14 09:05:19;;;;;;;11.88;0.88;;;11.50;99.90;;;;;;5008969;28;20112;-76
2023/10/14 09:07:48;;;;;;;0.00;0.00;;;11.60;1.00;;;;;;5016887;28;20076;-76
2023/10/14 09:10:18;;;;;;;7.03;2.00;;;11.70;99.90;;;;;;5011782;28;20037;-76
2023/10/14 09:13:01;;;;;;;0.60;0.47;;;11.70;99.90;;;;;;5013881;28;20048;-76
2023/10/14 09:15:28;;;;;;;0.00;0.00;;;11.90;63.90;;;;;;5010571;28;20042;-76
2023/10/14 09:17:55;;;;;;;0.20;0.20;;;12.20;1.00;;;;;;5015802;28;20037;-77
2023/10/14 09:20:35;;;;;;;1.85;0.15;;;12.30;99.90;;;;;;5012001;28;20100;-77
2023/10/14 09:23:17;;;;;;;3.75;1.33;;;12.40;1.00;;;;;;5012597;28;20038;-77
2023/10/14 09:25:49;;;;;;;0.98;0.38;;;13.60;99.90;;;;;;5025092;28;20133;-77
2023/10/14 09:28:17;;;;;;;0.38;0.22;;;12.60;99.90;;;;;;5010502;28;20052;-77
2023/10/14 09:30:49;;;;;;;0.43;0.43;;;12.60;99.90;;;;;;5007076;28;20095;-76
2023/10/14 09:33:17;;;;;;;0.10;0.10;;;12.70;65.70;;;;;;5014132;28;20484;-77
2023/10/14 09:35:44;;;;;;;0.00;0.00;;;12.80;92.90;;;;;;5015175;28;20049;-77
2023/10/14 09:38:14;;;;;;;0.00;0.00;;;13.00;1.00;;;;;;5014573;28;20053;-77
2023/10/14 09:40:40;;;;;;;0.00;0.00;;;13.10;99.90;;;;;;5014943;28;20384;-77
2023/10/14 09:43:06;;;;;;;0.45;0.20;;;13.10;99.90;;;;;;5016038;28;20049;-77
2023/10/14 09:45:33;;;;;;;0.00;0.00;;;13.10;99.90;;;;;;5015951;28;20054;-77
2023/10/14 09:48:01;;;;;;;0.10;0.10;;;13.00;99.90;;;;;;5000332;28;20049;-77
2023/10/14 09:50:29;;;;;;;0.50;0.50;;;13.00;99.90;;;;;;5016654;28;20046;-77
2023/10/14 09:52:56;;;;;;;2.40;0.98;;;13.10;99.90;;;;;;5015762;28;20045;-77
2023/10/14 09:55:24;;;;;;;1.30;0.75;;;13.10;99.90;;;;;;5015930;28;20050;-77
2023/10/14 09:57:50;;;;;;;0.52;0.30;;;13.20;99.90;;;;;;5015677;28;20061;-77
2023/10/14 10:00:16;;;;;;;0.10;0.10;;;13.20;99.90;;;;;;5015751;28;20038;-77
2023/10/14 10:02:46;;;;;;;0.85;0.38;;;13.20;99.90;;;;;;5015257;28;20041;-77
2023/10/14 10:05:26;;;;;;;0.00;0.00;;;13.30;99.90;;;;;;5015761;28;20127;-78
2023/10/14 10:08:07;;;;;;;0.00;0.00;;;13.60;99.90;;;;;;5013982;28;20042;-77
2023/10/14 10:10:33;;;;;;;0.00;0.00;;;13.60;99.90;;;;;;5008283;28;20143;-77
2023/10/14 10:13:00;;;;;;;2.65;0.73;;;13.80;99.90;;;;;;5015412;28;20038;-77
2023/10/14 10:15:25;;;;;;;12.55;2.72;;;14.20;99.90;;;;;;5015414;28;20042;-77
2023/10/14 10:18:05;;;;;;;1.65;0.90;;;14.60;99.90;;;;;;5015720;28;20391;-77
2023/10/14 10:20:35;;;;;;;0.17;0.13;;;15.20;99.90;;;;;;5015456;28;20042;-78
2023/10/14 10:23:02;;;;;;;0.20;0.20;;;15.30;99.90;;;;;;5016655;28;20042;-78
2023/10/14 10:25:37;;;;;;;2.80;0.65;;;13.40;25.10;;;;;;5016194;28;20046;-77
2023/10/14 10:28:28;;;;;;;0.00;0.00;;;11.90;99.90;;;;;;5016029;28;20124;-78
2023/10/14 10:31:15;;;;;;;2.00;0.70;;;10.80;1.00;;;;;;5008628;28;20404;-77
2023/10/14 10:33:49;;;;;;;0.00;0.00;;;10.30;99.90;;;;;;5015177;28;20081;-77
2023/10/14 10:36:25;;;;;;;0.20;0.20;;;10.20;99.90;;;;;;5014767;28;20376;-76
2023/10/14 10:38:55;;;;;;;0.00;0.00;;;10.40;99.90;;;;;;5007793;28;20070;-76
2023/10/14 10:41:26;;;;;;;0.00;0.00;;;10.50;99.90;;;;;;5015686;28;20057;-76
2023/10/14 10:44:02;;;;;;;2.20;0.85;;;10.60;99.90;;;;;;5015468;28;20053;-77
2023/10/14 10:46:48;;;;;;;0.10;0.10;;;10.80;99.90;;;;;;5015813;28;20044;-77
2023/10/14 10:49:16;;;;;;;0.00;0.00;;;10.80;72.40;;;;;;5008698;28;20077;-77
2023/10/14 10:51:51;;;;;;;0.00;0.00;;;10.70;1.00;;;;;;5014548;28;20056;-77
2023/10/14 10:54:22;;;;;;;0.20;0.20;;;11.80;99.90;;;;;;5014735;28;20442;-76
2023/10/14 10:56:47;;;;;;;0.00;0.00;;;10.80;99.90;;;;;;5014512;28;20050;-77
2023/10/14 10:59:14;;;;;;;0.10;0.10;;;11.00;99.90;;;;;;5014662;28;20103;-76
2023/10/14 11:01:40;;;;;;;0.00;0.00;;;11.10;99.90;;;;;;5014378;28;20507;-77
2023/10/14 11:04:12;;;;;;;0.00;0.00;;;11.30;1.00;;;;;;5013478;28;20034;-77
2023/10/14 11:06:38;;;;;;;0.25;0.25;;;11.40;1.00;;;;;;5010553;28;20128;-77
2023/10/14 11:09:05;;;;;;;0.00;0.00;;;11.60;1.00;;;;;;5011307;28;20049;-77
2023/10/14 11:11:33;;;;;;;1.38;0.73;;;11.60;1.00;;;;;;5008445;28;20488;-77
2023/10/14 11:14:00;;;;;;;0.20;0.15;;;11.80;99.90;;;;;;5011641;28;20046;-77
2023/10/14 11:16:28;;;;;;;0.00;0.00;;;12.00;99.90;;;;;;5006588;28;20037;-77
2023/10/14 11:18:54;;;;;;;0.03;0.00;;;12.10;1.00;;;;;;5010373;28;20091;-77
2023/10/14 11:21:21;;;;;;;8.15;2.58;;;12.40;99.90;;;;;;5008119;28;20060;-77
2023/10/14 11:23:47;;;;;;;0.45;0.35;;;12.60;99.90;;;;;;5013645;28;20403;-77
2023/10/14 11:26:16;;;;;;;0.00;0.00;;;12.90;99.90;;;;;;5006978;28;20405;-77
2023/10/14 11:28:45;;;;;;;0.30;0.15;;;13.10;99.90;;;;;;5010989;28;20041;-77
2023/10/14 11:31:12;;;;;;;0.00;0.00;;;13.20;1.00;;;;;;5011212;28;20423;-77
2023/10/14 11:33:38;;;;;;;0.00;0.00;;;13.30;99.90;;;;;;5010318;28;20042;-77
2023/10/14 11:36:05;;;;;;;0.50;0.28;;;13.30;1.00;;;;;;5010440;28;20034;-77
2023/10/14 11:38:32;;;;;;;0.03;0.03;;;12.80;1.00;;;;;;5012477;28;20041;-77
2023/10/14 11:40:58;;;;;;;0.10;0.10;;;11.90;99.90;;;;;;5011604;28;20034;-78
2023/10/14 11:43:24;;;;;;;3.60;0.85;;;11.30;99.90;;;;;;5012861;28;20086;-77
2023/10/14 11:45:52;;;;;;;0.13;0.13;;;11.10;99.90;;;;;;5008619;28;20034;-78
2023/10/14 11:48:30;;;;;;;1.80;1.05;;;10.90;99.90;;;;;;5015318;28;20038;-78
2023/10/14 11:51:02;;;;;;;9.63;0.38;;;10.70;99.90;;;;;;5013602;28;20038;-78
2023/10/14 11:53:29;;;;;;;0.15;0.15;;;10.50;1.00;;;;;;5012329;28;20050;-78
2023/10/14 11:55:59;;;;;;;0.63;0.63;;;10.40;1.00;;;;;;5013364;28;20129;-78
2023/10/14 11:58:28;;;;;;;0.17;0.15;;;10.30;99.90;;;;;;5010784;28;20070;-78
2023/10/14 12:00:55;;;;;;;2.28;0.75;;;10.20;1.00;;;;;;5010496;28;20061;-78
2023/10/14 12:03:20;;;;;;;0.20;0.20;;;10.30;1.00;;;;;;5011604;28;20042;-78
2023/10/14 12:05:46;;;;;;;1.35;0.75;;;10.50;22.80;;;;;;5010253;28;20042;-78
2023/10/14 12:08:12;;;;;;;1.17;0.35;;;10.70;99.90;;;;;;5011487;28;20391;-78
2023/10/14 12:10:37;;;;;;;0.43;0.40;;;10.80;99.90;;;;;;5013094;28;20435;-78
2023/10/14 12:13:03;;;;;;;1.10;0.30;;;11.10;99.90;;;;;;5009729;28;20107;-77
2023/10/14 12:15:35;;;;;;;0.17;0.17;;;11.30;1.00;;;;;;5008255;28;20042;-78
2023/10/14 12:18:03;;;;;;;1.13;1.05;;;11.30;99.90;;;;;;5010078;28;20129;-78
2023/10/14 12:20:29;;;;;;;0.00;0.00;;;11.50;97.10;;;;;;5012019;28;20068;-77
2023/10/14 12:22:55;;;;;;;1.65;0.28;;;11.50;99.90;;;;;;5009817;28;20046;-77
2023/10/14 12:25:21;;;;;;;0.08;0.05;;;11.40;67.40;;;;;;5010880;28;20038;-77
2023/10/14 12:27:48;;;;;;;0.13;0.10;;;11.30;99.90;;;;;;5011056;28;20030;-77
2023/10/14 12:33:04;;;;;;;1.75;0.90;;;11.30;99.90;;;;;;5010746;28;20119;-77
2023/10/14 12:35:32;;;;;;;7.22;1.80;;;11.20;99.90;;;;;;5007690;28;20053;-77
2023/10/14 12:37:58;;;;;;;0.80;0.52;;;11.30;99.90;;;;;;5002389;28;20340;-77
2023/10/14 12:40:24;;;;;;;0.15;0.15;;;11.30;1.00;;;;;;5009435;28;20048;-77
2023/10/14 12:42:54;;;;;;;10.32;0.80;;;11.50;99.90;;;;;;5009674;28;20392;-77
2023/10/14 12:45:23;;;;;;;0.00;0.00;;;11.50;99.90;;;;;;5010180;28;20595;-77
2023/10/14 12:48:11;;;;;;;0.00;0.00;;;11.50;99.90;;;;;;5009652;28;20447;-77
2023/10/14 12:50:40;;;;;;;0.10;0.10;;;11.50;24.40;;;;;;5012203;28;20046;-77
2023/10/14 12:53:10;;;;;;;1.35;0.50;;;11.30;99.90;;;;;;5005027;28;20038;-77
2023/10/14 12:55:39;;;;;;;2.47;0.85;;;11.20;99.90;;;;;;5011317;28;20487;-77
2023/10/14 12:58:04;;;;;;;0.15;0.15;;;11.40;1.00;;;;;;5012874;28;20494;-76
2023/10/14 13:00:30;;;;;;;0.00;0.00;;;11.70;99.90;;;;;;5012993;28;20046;-77
2023/10/14 13:03:00;;;;;;;1.48;0.13;;;11.90;99.90;;;;;;5012767;28;20041;-77
2023/10/14 13:05:26;;;;;;;0.55;0.47;;;12.00;99.90;;;;;;5012851;28;20042;-77
2023/10/14 13:07:54;;;;;;;1.20;0.75;;;12.20;99.90;;;;;;5011210;28;20399;-77
2023/10/14 13:10:25;;;;;;;0.00;0.00;;;12.60;99.90;;;;;;5012642;28;20068;-77
2023/10/14 13:12:53;;;;;;;0.00;0.00;;;13.20;1.00;;;;;;5012963;28;20046;-77
2023/10/14 13:15:30;;;;;;;0.22;0.22;;;13.60;22.50;;;;;;5012526;28;20042;-77
2023/10/14 13:17:57;;;;;;;0.32;0.28;;;14.00;99.90;;;;;;5012899;28;20053;-77
2023/10/14 13:20:27;;;;;;;2.10;1.65;;;14.20;99.90;;;;;;5012412;28;20049;-77
2023/10/14 13:22:58;;;;;;;0.00;0.00;;;14.00;99.90;;;;;;5012460;28;20049;-77
2023/10/14 13:25:24;;;;;;;1.45;0.90;;;13.50;99.90;;;;;;5012285;28;20046;-77
2023/10/14 13:27:51;;;;;;;0.10;0.10;;;13.20;99.90;;;;;;5012706;28;20088;-77
2023/10/14 13:30:22;;;;;;;0.00;0.00;;;13.00;99.90;;;;;;5012793;28;20041;-77
2023/10/14 13:32:53;;;;;;;0.20;0.20;;;13.10;99.90;;;;;;5005247;28;20165;-77